Time;durP1;ratioP1;P1;durP2;ratioP2;P2;SDS_P1;SDS_P2;PMS_P1;PMS_P2;Temp;Humidity;BMP_temperature;BMP_pressure;BME280_temperature;BME280_humidity;BME280_pressure;Samples;Min_cycle;Max_cycle;Signal;HPM_P1;HPM_P2
2024/01/02 00:02:13;;;;;;;171.75;112.47;;;5.80;99.90;;;;;;4936790;29;20388;-76
2024/01/02 00:04:39;;;;;;;150.52;94.57;;;5.80;99.90;;;;;;4937238;29;20095;-76
2024/01/02 00:07:05;;;;;;;149.55;99.38;;;5.80;99.90;;;;;;4937080;29;20127;-75
2024/01/02 00:09:31;;;;;;;141.10;94.70;;;5.90;99.90;;;;;;4937041;29;20040;-77
2024/01/02 00:11:57;;;;;;;146.77;101.20;;;5.80;99.90;;;;;;4937157;29;20103;-75
2024/01/02 00:14:23;;;;;;;125.57;84.32;;;5.90;99.90;;;;;;4937031;29;20110;-75
2024/01/02 00:16:49;;;;;;;137.45;90.35;;;5.90;99.90;;;;;;4937129;29;20111;-75
2024/01/02 00:19:15;;;;;;;120.78;81.43;;;5.80;99.90;;;;;;4936892;29;20470;-76
2024/01/02 00:21:40;;;;;;;117.18;73.00;;;5.80;99.90;;;;;;4937049;29;20016;-73
2024/01/02 00:24:06;;;;;;;108.95;71.45;;;5.80;99.90;;;;;;4936706;29;20036;-74
2024/01/02 00:26:32;;;;;;;102.22;64.65;;;5.80;99.90;;;;;;4936812;29;20020;-75
2024/01/02 00:28:58;;;;;;;92.60;61.33;;;5.80;99.90;;;;;;4919580;29;20040;-76
2024/01/02 00:31:24;;;;;;;89.55;56.47;;;5.80;99.90;;;;;;4919636;29;20396;-75
2024/01/02 00:33:50;;;;;;;117.93;71.47;;;5.70;99.90;;;;;;4919733;29;20036;-76
2024/01/02 00:36:16;;;;;;;127.18;73.30;;;5.80;99.90;;;;;;4936366;29;20032;-74
2024/01/02 00:38:42;;;;;;;104.47;68.05;;;5.80;99.90;;;;;;4936771;29;20031;-76
2024/01/02 00:41:08;;;;;;;148.57;89.43;;;5.80;99.90;;;;;;4919465;29;20039;-74
2024/01/02 00:43:34;;;;;;;132.85;80.55;;;5.80;99.90;;;;;;4936806;29;20066;-74
2024/01/02 00:46:00;;;;;;;91.10;57.80;;;5.70;99.90;;;;;;4919196;29;20028;-76
2024/01/02 00:48:26;;;;;;;74.18;46.08;;;5.70;99.90;;;;;;4919398;29;20506;-76
2024/01/02 00:50:52;;;;;;;54.42;38.30;;;5.70;99.90;;;;;;4919136;29;20049;-76
2024/01/02 00:53:20;;;;;;;50.33;35.30;;;5.70;99.90;;;;;;4936540;29;20028;-73
2024/01/02 00:55:46;;;;;;;53.83;37.33;;;5.70;99.90;;;;;;4919033;29;20031;-74
2024/01/02 00:58:12;;;;;;;57.65;41.78;;;5.70;99.90;;;;;;4936424;29;20103;-74
2024/01/02 01:00:37;;;;;;;59.42;41.90;;;5.80;99.90;;;;;;4935349;29;20209;-73
2024/01/02 01:03:04;;;;;;;68.63;46.67;;;5.80;99.90;;;;;;4936161;29;20038;-75
2024/01/02 01:05:30;;;;;;;96.55;61.45;;;5.80;99.90;;;;;;4936497;29;20495;-75
2024/01/02 01:07:56;;;;;;;90.75;56.67;;;5.70;99.90;;;;;;4935706;29;20040;-74
2024/01/02 01:10:22;;;;;;;79.88;48.40;;;5.70;99.90;;;;;;4915701;29;20048;-75
2024/01/02 01:12:48;;;;;;;59.67;41.08;;;5.70;99.90;;;;;;4916973;29;20032;-74
2024/01/02 01:15:14;;;;;;;43.05;31.17;;;5.70;99.90;;;;;;4917298;29;20136;-75
2024/01/02 01:17:40;;;;;;;59.30;41.42;;;5.70;99.90;;;;;;4917004;29;20342;-75
2024/01/02 01:20:08;;;;;;;44.92;31.75;;;5.70;99.90;;;;;;4917295;29;20436;-74
2024/01/02 01:22:36;;;;;;;43.80;30.25;;;5.70;99.90;;;;;;4916621;29;20044;-74
2024/01/02 01:25:02;;;;;;;39.95;28.33;;;5.70;99.90;;;;;;4915554;29;20094;-74
2024/01/02 01:27:28;;;;;;;36.47;26.08;;;5.70;99.90;;;;;;4915529;29;20134;-74
2024/01/02 01:29:54;;;;;;;38.00;26.45;;;5.70;99.90;;;;;;4916667;29;20488;-74
2024/01/02 01:32:20;;;;;;;37.97;27.50;;;5.70;99.90;;;;;;4916761;29;20036;-76
2024/01/02 01:34:46;;;;;;;37.83;27.52;;;5.50;99.90;;;;;;4915393;29;20089;-76
2024/01/02 01:37:12;;;;;;;38.45;26.52;;;5.40;99.90;;;;;;4915619;29;20032;-76
2024/01/02 01:39:39;;;;;;;28.83;20.48;;;5.50;99.90;;;;;;4915939;29;20080;-75
2024/01/02 01:42:05;;;;;;;34.65;24.20;;;5.50;99.90;;;;;;4915450;29;20063;-75
2024/01/02 01:44:32;;;;;;;39.47;27.45;;;5.50;99.90;;;;;;4913436;29;20107;-74
2024/01/02 01:46:58;;;;;;;38.40;25.58;;;5.60;99.90;;;;;;4926758;29;20112;-76
2024/01/02 01:49:24;;;;;;;26.73;20.42;;;5.60;99.90;;;;;;4915802;29;20057;-75
2024/01/02 01:51:51;;;;;;;33.40;25.80;;;5.60;99.90;;;;;;4916942;29;20028;-75
2024/01/02 01:54:18;;;;;;;37.92;24.02;;;5.60;99.90;;;;;;4920187;29;20036;-74
2024/01/02 01:56:44;;;;;;;40.35;26.58;;;5.60;99.90;;;;;;4915356;29;20024;-75
2024/01/02 01:59:13;;;;;;;38.33;25.50;;;5.60;99.90;;;;;;4925743;29;20063;-74
2024/01/02 02:01:40;;;;;;;35.65;26.38;;;5.60;99.90;;;;;;4930422;29;20378;-75
2024/01/02 02:04:06;;;;;;;31.17;23.80;;;5.70;99.90;;;;;;4914776;29;20071;-74
2024/01/02 02:06:32;;;;;;;33.15;24.52;;;5.70;99.90;;;;;;4915112;29;20490;-75
2024/01/02 02:08:58;;;;;;;36.55;23.27;;;5.60;99.90;;;;;;4915597;29;20071;-74
2024/01/02 02:11:25;;;;;;;43.90;24.33;;;5.70;99.90;;;;;;4914301;29;20045;-75
2024/01/02 02:13:52;;;;;;;32.90;23.30;;;5.70;99.90;;;;;;4903365;29;20031;-75
2024/01/02 02:16:18;;;;;;;38.78;24.70;;;5.60;99.90;;;;;;4916093;29;20064;-75
2024/01/02 02:18:44;;;;;;;31.63;21.98;;;5.60;99.90;;;;;;4895932;29;20041;-74
2024/01/02 02:21:10;;;;;;;35.88;23.35;;;5.50;99.90;;;;;;4909901;29;20036;-75
2024/01/02 02:23:36;;;;;;;30.85;22.83;;;5.50;99.90;;;;;;4914515;29;20051;-75
2024/01/02 02:26:02;;;;;;;28.45;19.65;;;5.40;99.90;;;;;;4915968;29;20043;-73
2024/01/02 02:28:28;;;;;;;35.13;22.15;;;5.40;99.90;;;;;;4914424;29;20207;-74
2024/01/02 02:30:54;;;;;;;33.55;22.33;;;5.40;99.90;;;;;;4915838;29;20111;-75
2024/01/02 02:33:20;;;;;;;37.55;30.02;;;5.40;99.90;;;;;;4915730;29;20118;-74
2024/01/02 02:35:46;;;;;;;29.42;22.60;;;5.30;99.90;;;;;;4914691;29;20033;-75
2024/01/02 02:38:11;;;;;;;30.80;22.67;;;5.30;99.90;;;;;;4903351;29;20040;-75
2024/01/02 02:40:38;;;;;;;31.30;22.40;;;5.30;99.90;;;;;;4915586;29;20032;-76
2024/01/02 02:43:04;;;;;;;30.98;21.85;;;5.30;99.90;;;;;;4914512;29;20079;-73
2024/01/02 02:45:32;;;;;;;39.83;22.33;;;5.30;99.90;;;;;;4914281;29;20036;-75
2024/01/02 02:47:58;;;;;;;30.67;20.88;;;5.30;99.90;;;;;;4903132;29;20373;-74
2024/01/02 02:50:24;;;;;;;29.92;21.08;;;5.30;99.90;;;;;;4915420;29;20040;-74
2024/01/02 02:52:50;;;;;;;27.02;17.80;;;5.30;99.90;;;;;;4914562;29;20046;-74
2024/01/02 02:55:16;;;;;;;27.15;17.05;;;5.20;99.90;;;;;;4914295;29;20469;-75
2024/01/02 02:57:42;;;;;;;23.60;18.02;;;5.20;99.90;;;;;;4915727;29;20080;-74
2024/01/02 03:00:10;;;;;;;32.95;22.48;;;5.20;99.90;;;;;;4915955;29;20034;-74
2024/01/02 03:02:36;;;;;;;39.53;27.48;;;5.20;99.90;;;;;;4915899;29;20032;-75
2024/01/02 03:05:02;;;;;;;34.72;24.42;;;5.20;99.90;;;;;;4915850;29;20028;-75
2024/01/02 03:07:28;;;;;;;38.70;24.90;;;5.10;99.90;;;;;;4915549;29;20099;-74
2024/01/02 03:09:54;;;;;;;34.47;23.80;;;5.00;99.90;;;;;;4918705;29;20435;-74
2024/01/02 03:12:20;;;;;;;33.55;19.15;;;5.00;99.90;;;;;;4934549;29;20126;-74
2024/01/02 03:14:46;;;;;;;30.95;19.85;;;5.00;99.90;;;;;;4934514;29;20107;-74
2024/01/02 03:17:12;;;;;;;29.30;18.85;;;5.10;99.90;;;;;;4934216;29;20039;-74
2024/01/02 03:19:38;;;;;;;28.50;19.40;;;5.10;99.90;;;;;;4934313;29;20032;-75
2024/01/02 03:22:04;;;;;;;24.52;18.20;;;5.10;99.90;;;;;;4934622;29;20036;-75
2024/01/02 03:24:31;;;;;;;28.27;18.83;;;5.00;99.90;;;;;;4938013;29;20499;-76
2024/01/02 03:26:57;;;;;;;26.23;17.67;;;5.10;99.90;;;;;;4937797;29;20036;-75
2024/01/02 03:29:23;;;;;;;25.17;18.35;;;5.00;99.90;;;;;;4937768;29;20047;-75
2024/01/02 03:31:48;;;;;;;29.63;18.40;;;4.90;99.90;;;;;;4938155;29;20038;-74
2024/01/02 03:34:15;;;;;;;26.40;16.83;;;4.90;99.90;;;;;;4937620;29;20038;-75
2024/01/02 03:36:40;;;;;;;26.15;19.30;;;4.90;99.90;;;;;;4938054;29;20024;-74
2024/01/02 03:39:06;;;;;;;25.75;17.85;;;4.80;99.90;;;;;;4937480;29;20038;-74
2024/01/02 03:41:32;;;;;;;39.17;27.60;;;4.90;99.90;;;;;;4937829;29;20059;-75
2024/01/02 03:43:58;;;;;;;54.10;39.10;;;4.80;99.90;;;;;;4937344;29;20043;-74
2024/01/02 03:46:24;;;;;;;52.13;36.63;;;4.70;99.90;;;;;;4937780;29;20035;-74
2024/01/02 03:48:50;;;;;;;63.22;43.38;;;4.70;99.90;;;;;;4937115;29;20031;-74
2024/01/02 03:51:16;;;;;;;75.25;51.95;;;4.60;99.90;;;;;;4937639;29;20027;-74
2024/01/02 03:53:42;;;;;;;76.57;50.60;;;4.50;99.90;;;;;;4937167;29;20032;-74
2024/01/02 03:56:10;;;;;;;80.88;54.83;;;4.50;99.90;;;;;;4937112;29;20376;-75
2024/01/02 03:58:36;;;;;;;65.68;46.60;;;4.50;99.90;;;;;;4937410;29;20051;-75
2024/01/02 04:01:02;;;;;;;63.85;43.60;;;4.40;99.90;;;;;;4937136;29;20038;-74
2024/01/02 04:03:28;;;;;;;70.78;50.47;;;4.40;99.90;;;;;;4937176;29;20031;-74
2024/01/02 04:05:54;;;;;;;82.85;56.20;;;4.30;99.90;;;;;;4937317;29;20023;-73
2024/01/02 04:08:20;;;;;;;96.22;60.25;;;4.30;99.90;;;;;;4937264;29;20040;-75
2024/01/02 04:10:45;;;;;;;91.60;61.80;;;4.20;99.90;;;;;;4936792;29;20052;-74
2024/01/02 04:13:12;;;;;;;91.80;61.42;;;4.20;99.90;;;;;;4937378;29;20079;-74
2024/01/02 04:15:38;;;;;;;90.82;61.92;;;4.10;99.90;;;;;;4937038;29;20036;-75
2024/01/02 04:18:04;;;;;;;90.03;59.78;;;4.10;99.90;;;;;;4936879;29;20110;-74
2024/01/02 04:20:30;;;;;;;82.75;53.08;;;4.00;99.90;;;;;;4936723;29;20388;-74
2024/01/02 04:22:57;;;;;;;81.75;55.60;;;4.00;99.90;;;;;;4936894;29;20083;-75
2024/01/02 04:25:25;;;;;;;84.47;57.28;;;3.90;99.90;;;;;;4937002;29;20028;-75
2024/01/02 04:27:53;;;;;;;96.82;62.33;;;3.90;99.90;;;;;;4936542;29;20027;-76
2024/01/02 04:30:19;;;;;;;86.07;59.65;;;3.80;99.90;;;;;;4937082;29;20028;-76
2024/01/02 04:32:45;;;;;;;85.55;56.13;;;3.90;99.90;;;;;;4936520;29;20490;-74
2024/01/02 04:35:11;;;;;;;80.22;51.80;;;3.90;99.90;;;;;;4947434;28;20526;-75
2024/01/02 04:37:37;;;;;;;76.63;51.45;;;3.90;99.90;;;;;;4938226;29;20444;-76
2024/01/02 04:40:06;;;;;;;72.93;51.17;;;3.80;99.90;;;;;;4936780;29;20078;-75
2024/01/02 04:42:35;;;;;;;81.63;57.67;;;3.80;99.90;;;;;;4936492;29;20028;-76
2024/01/02 04:45:04;;;;;;;87.18;57.47;;;3.80;99.90;;;;;;4936543;29;20049;-75
2024/01/02 04:47:31;;;;;;;80.70;54.83;;;3.70;99.90;;;;;;4919104;29;20389;-75
2024/01/02 04:49:57;;;;;;;83.40;54.95;;;3.70;99.90;;;;;;4936885;29;20024;-75
2024/01/02 04:52:23;;;;;;;81.63;52.35;;;3.70;99.90;;;;;;4936425;29;20024;-75
2024/01/02 04:54:49;;;;;;;70.43;49.25;;;3.70;99.90;;;;;;4936381;29;20392;-75
2024/01/02 04:57:16;;;;;;;87.38;57.10;;;3.70;99.90;;;;;;4936426;29;20028;-75
2024/01/02 04:59:42;;;;;;;68.15;49.58;;;3.60;99.90;;;;;;4936157;29;20024;-75
2024/01/02 05:02:08;;;;;;;79.50;55.53;;;3.60;99.90;;;;;;4936281;29;20046;-75
2024/01/02 05:04:34;;;;;;;114.55;75.38;;;3.50;99.90;;;;;;4936253;29;20086;-76
2024/01/02 05:07:00;;;;;;;110.65;75.15;;;3.50;99.90;;;;;;4935778;29;20046;-75
2024/01/02 05:09:27;;;;;;;93.45;63.30;;;3.40;99.90;;;;;;4936490;29;20027;-76
2024/01/02 05:11:53;;;;;;;79.28;49.83;;;3.40;99.90;;;;;;4935884;29;20055;-77
2024/01/02 05:14:19;;;;;;;69.03;43.05;;;3.40;99.90;;;;;;4936312;29;20477;-75
2024/01/02 05:16:45;;;;;;;70.22;46.33;;;3.40;99.90;;;;;;4935793;29;20027;-75
2024/01/02 05:19:11;;;;;;;61.10;43.00;;;3.50;99.90;;;;;;4935903;29;20030;-76
2024/01/02 05:21:37;;;;;;;84.30;51.65;;;3.50;99.90;;;;;;4935495;29;20123;-75
2024/01/02 05:24:03;;;;;;;74.25;47.25;;;3.60;99.90;;;;;;4935969;29;20024;-74
2024/01/02 05:26:29;;;;;;;79.88;55.75;;;3.50;99.90;;;;;;4935503;29;20055;-76
2024/01/02 05:28:55;;;;;;;65.75;46.75;;;3.50;99.90;;;;;;4935145;29;20141;-76
2024/01/02 05:31:21;;;;;;;79.78;51.85;;;3.50;99.90;;;;;;4938979;28;20052;-75
2024/01/02 05:33:47;;;;;;;69.47;49.35;;;3.50;99.90;;;;;;4935587;29;20028;-76
2024/01/02 05:36:12;;;;;;;68.45;45.40;;;3.40;99.90;;;;;;4935291;29;20023;-74
2024/01/02 05:38:38;;;;;;;74.88;42.60;;;3.40;99.90;;;;;;4935660;29;20031;-75
2024/01/02 05:41:04;;;;;;;126.68;53.90;;;3.40;99.90;;;;;;4935041;29;20282;-75
2024/01/02 05:43:30;;;;;;;65.68;36.58;;;3.40;99.90;;;;;;4938117;29;20032;-75
2024/01/02 05:45:56;;;;;;;50.72;33.70;;;3.40;99.90;;;;;;4935143;29;20372;-75
2024/01/02 05:48:22;;;;;;;77.78;46.70;;;3.30;99.90;;;;;;4934974;29;20114;-75
2024/01/02 05:50:47;;;;;;;74.32;47.53;;;3.20;99.90;;;;;;4937631;29;20508;-74
2024/01/02 05:53:13;;;;;;;72.60;45.20;;;3.20;99.90;;;;;;4935275;29;20032;-75
2024/01/02 05:55:39;;;;;;;64.80;40.50;;;3.20;99.90;;;;;;4944706;29;20024;-75
2024/01/02 05:58:05;;;;;;;92.35;41.45;;;3.10;99.90;;;;;;4935352;29;20035;-76
2024/01/02 06:00:31;;;;;;;55.30;33.15;;;3.00;99.90;;;;;;4934918;29;20377;-76
2024/01/02 06:02:57;;;;;;;59.08;36.30;;;3.00;99.90;;;;;;4935292;29;20495;-75
2024/01/02 06:05:23;;;;;;;43.85;32.58;;;2.90;99.90;;;;;;4942297;29;20135;-75
2024/01/02 06:07:49;;;;;;;48.53;34.28;;;3.00;99.90;;;;;;4934159;29;20171;-75
2024/01/02 06:10:15;;;;;;;63.25;31.42;;;2.90;99.90;;;;;;4933748;29;20130;-75
2024/01/02 06:12:42;;;;;;;46.08;32.28;;;2.90;99.90;;;;;;4927058;29;20051;-76
2024/01/02 06:15:08;;;;;;;62.45;39.90;;;2.90;99.90;;;;;;4929350;29;20471;-75
2024/01/02 06:17:34;;;;;;;42.45;30.25;;;2.90;99.90;;;;;;4926106;29;20043;-75
2024/01/02 06:20:02;;;;;;;48.90;33.75;;;2.80;99.90;;;;;;4928806;29;20472;-75
2024/01/02 06:22:28;;;;;;;85.88;47.97;;;2.70;99.90;;;;;;4924751;29;20088;-75
2024/01/02 06:24:54;;;;;;;79.18;45.38;;;2.80;99.90;;;;;;4934302;29;20028;-75
2024/01/02 06:27:20;;;;;;;51.25;33.92;;;2.80;99.90;;;;;;4923413;29;20047;-75
2024/01/02 06:29:45;;;;;;;50.70;33.28;;;2.80;99.90;;;;;;4927997;29;20027;-76
2024/01/02 06:32:11;;;;;;;50.63;34.42;;;2.80;99.90;;;;;;4931894;29;20024;-73
2024/01/02 06:34:37;;;;;;;65.50;36.03;;;2.70;99.90;;;;;;4931695;29;20024;-75
2024/01/02 06:37:04;;;;;;;60.28;36.45;;;2.70;99.90;;;;;;4926888;29;20495;-74
2024/01/02 06:39:29;;;;;;;58.17;36.80;;;2.80;99.90;;;;;;4931368;29;20038;-75
2024/01/02 06:41:55;;;;;;;66.80;36.80;;;2.90;99.90;;;;;;4905091;29;20036;-74
2024/01/02 06:44:21;;;;;;;52.63;34.85;;;2.90;99.90;;;;;;4932918;29;20028;-74
2024/01/02 06:46:47;;;;;;;56.30;33.65;;;3.00;99.90;;;;;;4921043;29;20035;-75
2024/01/02 06:49:13;;;;;;;49.92;31.77;;;3.00;99.90;;;;;;4922016;29;20032;-75
2024/01/02 06:51:39;;;;;;;52.45;32.08;;;3.10;99.90;;;;;;4934167;29;20031;-74
2024/01/02 06:54:05;;;;;;;58.75;34.53;;;3.10;99.90;;;;;;4931015;29;20032;-74
2024/01/02 06:56:30;;;;;;;65.75;41.65;;;3.20;99.90;;;;;;4934370;29;20058;-74
2024/01/02 06:58:56;;;;;;;68.15;38.25;;;3.20;99.90;;;;;;4937575;29;20035;-74
2024/01/02 07:01:22;;;;;;;125.70;80.47;;;3.30;99.90;;;;;;4938321;29;20024;-74
2024/01/02 07:03:48;;;;;;;62.00;39.25;;;3.30;99.90;;;;;;4938427;29;20036;-75
2024/01/02 07:06:14;;;;;;;64.13;42.83;;;3.30;99.90;;;;;;4938095;29;20126;-74
2024/01/02 07:08:40;;;;;;;71.00;48.78;;;3.30;99.90;;;;;;4938195;29;20566;-74
2024/01/02 07:11:06;;;;;;;78.65;52.78;;;3.30;99.90;;;;;;4937891;29;20126;-74
2024/01/02 07:13:32;;;;;;;68.70;45.25;;;3.50;99.90;;;;;;4938146;29;20032;-74
2024/01/02 07:15:58;;;;;;;79.82;51.08;;;3.50;99.90;;;;;;4937968;29;20030;-74
2024/01/02 07:18:24;;;;;;;59.70;41.15;;;3.40;99.90;;;;;;4938074;29;20027;-74
2024/01/02 07:20:49;;;;;;;81.38;33.13;;;3.30;99.90;;;;;;4937923;29;20378;-74
2024/01/02 07:23:18;;;;;;;149.98;31.13;;;3.30;99.90;;;;;;4939059;29;20070;-75
2024/01/02 07:25:44;;;;;;;86.68;31.17;;;3.00;99.90;;;;;;4937658;29;20027;-74
2024/01/02 07:28:10;;;;;;;101.20;33.83;;;2.90;99.90;;;;;;4937795;29;20110;-75
2024/01/02 07:30:35;;;;;;;65.03;28.30;;;2.70;99.90;;;;;;4943386;29;20371;-75
2024/01/02 07:33:01;;;;;;;62.10;32.35;;;2.90;99.90;;;;;;4938648;29;20031;-76
2024/01/02 07:35:28;;;;;;;79.88;33.85;;;2.90;99.90;;;;;;4931192;29;20391;-76
2024/01/02 07:37:54;;;;;;;105.10;41.13;;;2.90;99.90;;;;;;4937559;29;20723;-76
2024/01/02 07:40:20;;;;;;;89.72;41.60;;;2.90;99.90;;;;;;4938783;29;20140;-76
2024/01/02 07:42:46;;;;;;;93.47;44.25;;;3.00;99.90;;;;;;4931454;29;20405;-77
2024/01/02 07:45:12;;;;;;;80.15;45.40;;;3.10;99.90;;;;;;4927451;29;20028;-76
2024/01/02 07:47:38;;;;;;;98.78;52.80;;;3.20;99.90;;;;;;4928736;29;20040;-76
2024/01/02 07:50:05;;;;;;;73.15;45.33;;;3.40;99.90;;;;;;4922168;29;20028;-76
2024/01/02 07:52:32;;;;;;;91.47;45.03;;;3.40;99.90;;;;;;4931845;29;20495;-76
2024/01/02 07:54:58;;;;;;;91.07;40.08;;;3.20;99.90;;;;;;4931631;29;20027;-76
2024/01/02 07:57:25;;;;;;;116.28;43.92;;;3.40;99.90;;;;;;4937951;29;20023;-77
2024/01/02 07:59:51;;;;;;;104.43;40.28;;;3.20;99.90;;;;;;4936656;29;20036;-77
2024/01/02 08:02:21;;;;;;;158.93;48.47;;;3.40;99.90;;;;;;4937115;29;20051;-76
2024/01/02 08:04:48;;;;;;;49.85;34.00;;;3.10;99.90;;;;;;4935123;29;20496;-76
2024/01/02 08:07:14;;;;;;;41.75;27.33;;;3.20;99.90;;;;;;4936770;29;20035;-77
2024/01/02 08:09:40;;;;;;;39.08;22.98;;;3.10;99.90;;;;;;4934903;29;20436;-77
2024/01/02 08:12:06;;;;;;;41.08;27.35;;;3.30;99.90;;;;;;4935603;29;20046;-76
2024/01/02 08:14:32;;;;;;;36.70;23.27;;;3.60;99.90;;;;;;4936676;29;20039;-75
2024/01/02 08:16:58;;;;;;;32.00;21.98;;;3.80;99.90;;;;;;4935120;29;20051;-76
2024/01/02 08:19:24;;;;;;;40.38;27.77;;;4.10;99.90;;;;;;4931670;29;20032;-75
2024/01/02 08:21:50;;;;;;;32.92;24.30;;;4.20;99.90;;;;;;4935899;29;20460;-75
2024/01/02 08:24:17;;;;;;;24.42;17.63;;;4.40;99.90;;;;;;4937271;29;20028;-78
2024/01/02 08:26:43;;;;;;;24.77;17.55;;;4.50;99.90;;;;;;4934931;29;20094;-76
2024/01/02 08:29:09;;;;;;;26.85;18.58;;;4.70;99.90;;;;;;4936867;29;20095;-77
2024/01/02 08:31:35;;;;;;;26.85;17.42;;;4.80;99.90;;;;;;4933844;29;20123;-76
2024/01/02 08:34:03;;;;;;;27.15;18.17;;;5.00;99.90;;;;;;4935661;29;20035;-77
2024/01/02 08:36:28;;;;;;;31.48;22.83;;;5.20;99.90;;;;;;4933455;29;20499;-76
2024/01/02 08:38:55;;;;;;;32.20;21.83;;;5.40;99.90;;;;;;4935102;29;20067;-76
2024/01/02 08:41:25;;;;;;;35.45;23.25;;;5.50;99.90;;;;;;4934064;29;20027;-76
2024/01/02 08:43:51;;;;;;;40.65;26.02;;;5.60;99.90;;;;;;4934663;29;20059;-77
2024/01/02 08:46:17;;;;;;;38.33;25.40;;;5.70;99.90;;;;;;4931465;29;20028;-77
2024/01/02 08:48:44;;;;;;;42.05;23.85;;;5.90;99.90;;;;;;4933605;29;20044;-76
2024/01/02 08:51:11;;;;;;;36.13;24.73;;;6.00;99.90;;;;;;4904248;29;20027;-75
2024/01/02 08:53:37;;;;;;;40.55;24.30;;;6.10;99.90;;;;;;4937383;29;20111;-78
2024/01/02 08:56:03;;;;;;;30.08;20.15;;;6.20;99.90;;;;;;4937302;29;20106;-78
2024/01/02 08:58:29;;;;;;;29.98;20.58;;;6.30;99.90;;;;;;4933361;29;20046;-78
2024/01/02 09:00:55;;;;;;;28.27;18.20;;;6.40;99.90;;;;;;4937355;29;20031;-77
2024/01/02 09:03:22;;;;;;;27.60;17.02;;;6.70;99.90;;;;;;4937248;29;20123;-78
2024/01/02 09:05:48;;;;;;;30.15;19.13;;;6.80;99.90;;;;;;4936605;29;20024;-77
2024/01/02 09:08:15;;;;;;;44.13;21.83;;;6.90;99.90;;;;;;4937010;29;20501;-77
2024/01/02 09:10:43;;;;;;;38.90;20.80;;;7.00;99.90;;;;;;4945116;28;20130;-78
2024/01/02 09:13:09;;;;;;;26.85;18.00;;;7.20;99.90;;;;;;4936760;29;20023;-77
2024/01/02 09:15:35;;;;;;;27.55;18.00;;;7.20;99.90;;;;;;4933917;29;20392;-77
2024/01/02 09:18:01;;;;;;;29.48;17.08;;;6.90;99.90;;;;;;4935736;29;20071;-77
2024/01/02 09:20:30;;;;;;;23.20;16.58;;;7.00;99.90;;;;;;4926621;29;20036;-75
2024/01/02 09:22:57;;;;;;;21.98;14.90;;;7.00;99.90;;;;;;4935537;29;20024;-77
2024/01/02 09:25:26;;;;;;;22.30;15.55;;;6.90;99.90;;;;;;4936035;29;20040;-77
2024/01/02 09:27:56;;;;;;;21.40;13.95;;;6.80;99.90;;;;;;4936584;29;20036;-77
2024/01/02 09:30:23;;;;;;;21.17;14.95;;;6.80;99.90;;;;;;4936689;29;20083;-77
2024/01/02 09:32:49;;;;;;;22.35;14.82;;;6.80;99.90;;;;;;4936837;29;20030;-77
2024/01/02 09:35:17;;;;;;;24.80;16.35;;;7.00;99.90;;;;;;4936140;29;20035;-77
2024/01/02 09:37:44;;;;;;;27.02;17.05;;;7.10;99.90;;;;;;4919668;29;20468;-77
2024/01/02 09:40:51;;;;;;;25.08;16.25;;;7.30;99.90;;;;;;4936339;29;20036;-77
2024/01/02 09:43:36;;;;;;;31.80;19.02;;;7.50;99.90;;;;;;4884622;29;20085;-76
2024/01/02 09:46:14;;;;;;;27.17;16.92;;;7.60;99.90;;;;;;4875939;29;20033;-75
2024/01/02 09:49:07;;;;;;;30.15;19.50;;;7.60;99.90;;;;;;4862341;29;20441;-75
2024/01/02 09:52:02;;;;;;;41.53;26.20;;;7.80;99.90;;;;;;4876646;29;20070;-76
2024/01/02 09:55:16;;;;;;;34.08;23.02;;;8.00;99.90;;;;;;4862519;29;20489;-77
2024/01/02 09:58:12;;;;;;;48.78;33.08;;;8.30;99.90;;;;;;4858518;29;20045;-76
2024/01/02 10:00:49;;;;;;;46.38;29.65;;;8.30;99.90;;;;;;4858558;29;20076;-77
2024/01/02 10:03:50;;;;;;;43.92;28.58;;;8.60;99.90;;;;;;4858040;29;20113;-76
2024/01/02 10:06:25;;;;;;;39.03;23.85;;;8.70;99.90;;;;;;4822828;29;20047;-78
2024/01/02 10:09:10;;;;;;;41.08;30.02;;;8.90;99.90;;;;;;4821549;29;20089;-78
2024/01/02 10:12:20;;;;;;;59.22;42.38;;;9.00;99.90;;;;;;4838809;29;20085;-78
2024/01/02 10:15:17;;;;;;;40.90;25.55;;;9.10;99.90;;;;;;4823439;29;20038;-77
2024/01/02 10:18:01;;;;;;;25.15;17.30;;;9.30;99.90;;;;;;4822871;29;20038;-78
2024/01/02 10:20:38;;;;;;;34.95;23.83;;;9.30;99.90;;;;;;4833112;29;20038;-76
2024/01/02 10:23:29;;;;;;;39.92;26.50;;;9.40;99.90;;;;;;4840221;29;20106;-76
2024/01/02 10:26:02;;;;;;;39.90;25.98;;;9.50;99.90;;;;;;4841649;29;20065;-78
2024/01/02 10:28:28;;;;;;;;;;;9.40;99.90;;;;;;4828682;29;20167;-76
2024/01/02 10:30:58;;;;;;;34.47;24.08;;;9.60;99.90;;;;;;4842567;29;20001;-77
2024/01/02 10:33:50;;;;;;;62.17;41.45;;;9.70;99.90;;;;;;4848841;29;20045;-77
2024/01/02 10:36:22;;;;;;;57.25;41.63;;;9.80;99.90;;;;;;4876408;29;20069;-78
2024/01/02 10:39:02;;;;;;;79.38;54.00;;;9.90;99.90;;;;;;4866565;29;20060;-79
2024/01/02 10:41:53;;;;;;;80.00;56.50;;;10.00;99.90;;;;;;4917836;29;20391;-75
2024/01/02 10:44:51;;;;;;;80.10;57.10;;;10.10;99.90;;;;;;4928236;29;20054;-76
2024/01/02 10:47:21;;;;;;;57.40;40.30;;;10.10;99.90;;;;;;4928562;29;20039;-79
2024/01/02 10:49:52;;;;;;;49.78;34.38;;;10.20;99.90;;;;;;4928957;29;20051;-76
2024/01/02 10:52:34;;;;;;;41.45;29.00;;;10.30;99.90;;;;;;4934670;29;20039;-79
2024/01/02 10:55:06;;;;;;;25.20;17.00;;;10.30;99.90;;;;;;4928858;29;20384;-76
2024/01/02 10:57:45;;;;;;;25.85;15.40;;;10.40;99.90;;;;;;4922880;29;20499;-79
2024/01/02 11:00:22;;;;;;;22.58;13.15;;;10.50;99.90;;;;;;4923598;29;20035;-78
2024/01/02 11:02:53;;;;;;;24.55;15.98;;;10.60;99.90;;;;;;4925970;29;20132;-79
2024/01/02 11:05:37;;;;;;;17.50;11.63;;;10.70;99.90;;;;;;4925318;29;20484;-79
2024/01/02 11:08:29;;;;;;;22.25;12.93;;;10.80;99.90;;;;;;4921550;29;20047;-75
2024/01/02 11:11:03;;;;;;;27.55;18.52;;;10.80;99.90;;;;;;4933879;29;20142;-79
2024/01/02 11:13:30;;;;;;;30.63;14.05;;;10.90;99.90;;;;;;4934387;29;20088;-77
2024/01/02 11:16:00;;;;;;;23.08;14.90;;;11.00;99.90;;;;;;4931619;29;20078;-80
2024/01/02 11:18:31;;;;;;;18.60;11.07;;;11.10;99.90;;;;;;4934172;29;20425;-78
2024/01/02 11:21:30;;;;;;;22.73;16.88;;;11.20;99.90;;;;;;4935363;29;20066;-76
2024/01/02 11:24:05;;;;;;;17.98;12.10;;;11.30;99.90;;;;;;4932111;29;20046;-78
2024/01/02 11:26:35;;;;;;;19.27;11.85;;;11.10;99.90;;;;;;4934238;29;20032;-78
2024/01/02 11:29:03;;;;;;;16.02;10.10;;;11.20;99.90;;;;;;4934411;29;20040;-77
2024/01/02 11:31:34;;;;;;;18.35;10.40;;;11.20;99.90;;;;;;4934342;29;20024;-78
2024/01/02 11:34:11;;;;;;;14.23;8.10;;;11.30;99.90;;;;;;4934545;29;20039;-78
2024/01/02 11:37:04;;;;;;;19.70;11.30;;;11.30;99.90;;;;;;4934300;29;20464;-78
2024/01/02 11:39:36;;;;;;;16.55;10.20;;;11.60;99.90;;;;;;4934299;29;20076;-78
2024/01/02 11:42:12;;;;;;;18.77;11.65;;;11.70;99.90;;;;;;4934488;29;20028;-75
2024/01/02 11:45:08;;;;;;;16.88;9.20;;;11.80;99.90;;;;;;4919427;29;20039;-76
2024/01/02 11:47:48;;;;;;;14.80;7.45;;;12.10;99.90;;;;;;4929115;29;20067;-76
2024/01/02 11:50:15;;;;;;;13.98;6.32;;;12.30;99.90;;;;;;4937221;29;20028;-75
2024/01/02 11:53:06;;;;;;;13.85;7.68;;;12.40;99.90;;;;;;4937915;29;20034;-77
2024/01/02 11:55:44;;;;;;;14.18;6.10;;;12.50;99.90;;;;;;4937441;29;20059;-80
2024/01/02 11:58:33;;;;;;;9.15;5.32;;;12.60;98.50;;;;;;4937439;29;20039;-80
2024/01/02 12:01:02;;;;;;;11.18;4.78;;;12.70;97.70;;;;;;4927252;29;20035;-78
2024/01/02 12:03:52;;;;;;;11.23;5.18;;;12.70;96.70;;;;;;4937507;29;20032;-80
2024/01/02 12:06:53;;;;;;;12.40;4.78;;;12.70;96.50;;;;;;4937297;29;20480;-78
2024/01/02 12:09:19;;;;;;;15.70;6.53;;;12.80;96.30;;;;;;4932265;29;20051;-79
2024/01/02 12:12:05;;;;;;;17.48;7.60;;;12.70;95.10;;;;;;4937319;29;20044;-79
2024/01/02 12:14:57;;;;;;;13.52;6.38;;;12.70;95.60;;;;;;4937146;29;20035;-79
2024/01/02 12:17:26;;;;;;;15.00;7.15;;;12.60;95.50;;;;;;4937123;29;20027;-78
2024/01/02 12:20:00;;;;;;;17.42;6.35;;;12.60;95.60;;;;;;4933986;29;20970;-76
2024/01/02 12:22:27;;;;;;;19.27;5.45;;;12.60;94.20;;;;;;4929605;29;20387;-78
2024/01/02 12:24:53;;;;;;;12.30;5.47;;;12.60;94.20;;;;;;4936823;29;20023;-78
2024/01/02 12:27:23;;;;;;;15.27;6.63;;;12.60;94.90;;;;;;4937171;29;20027;-77
2024/01/02 12:29:53;;;;;;;14.52;6.88;;;12.60;95.00;;;;;;4936418;29;20748;-77
2024/01/02 12:32:51;;;;;;;12.85;5.75;;;12.70;94.70;;;;;;4937126;29;20035;-77
2024/01/02 12:35:44;;;;;;;10.35;4.85;;;12.60;93.50;;;;;;4937104;29;20063;-79
2024/01/02 12:38:17;;;;;;;11.25;5.30;;;12.60;93.70;;;;;;4936548;29;20035;-77
2024/01/02 12:40:47;;;;;;;13.48;5.68;;;12.70;93.50;;;;;;4949402;28;20034;-76
2024/01/02 12:43:21;;;;;;;13.70;5.70;;;12.70;93.70;;;;;;4936844;29;20032;-76
2024/01/02 12:45:57;;;;;;;11.70;5.03;;;12.70;94.10;;;;;;4936481;29;20038;-74
2024/01/02 12:48:26;;;;;;;12.90;5.35;;;12.70;94.60;;;;;;4936612;29;20036;-77